Create Tblcommutelog Verified Points Advance Search
| # | Trip ID | Id Commuter | Trip Date | Trip Num | Current Lat | Current Lng | Delta Distance | Current Time | Activity | Activity Confidence | Current Speed | |
|---|---|---|---|---|---|---|---|---|---|---|---|---|
| 72221 | 250807_780998_16415274_0850 | 780998 | (not set) | (not set) | 39.004461063254 | -77.159617326808 | 2.5883 | 2025-08-07 09:00:32 | in_vehicle | 100 | 6.6742961366867 | |
| 72222 | 250807_776618_16511321_0831 | 776618 | (not set) | (not set) | 38.891608998178 | -77.192925169371 | 5.4838 | 2025-08-07 09:00:34 | in_vehicle | 100 | 2.329074539326 | |
| 72223 | 250807_698742_16447752_0837 | 698742 | (not set) | (not set) | 38.856279648943 | -77.047840165656 | 12.3337 | 2025-08-07 09:00:34 | in_vehicle | 100 | 7.2956807066797 | |
| 72224 | 250807_781727_6461772_0843 | 781727 | (not set) | (not set) | 38.861843833195 | -77.089654662282 | 2.9626 | 2025-08-07 09:00:36 | unknown | 100 | 4.1351131456364 | |
| 72225 | 250807_780789_16421763_0831 | 780789 | (not set) | (not set) | 38.792854590547 | -77.544850051477 | 12.0511 | 2025-08-07 09:00:37 | unknown | 100 | 8.0332954840094 | |
| 72226 | 250807_776877_16494140_0847 | 776877 | (not set) | (not set) | 38.896063822291 | -77.071441524299 | 3.7055 | 2025-08-07 09:00:37 | on_foot | 100 | -0.44703925898772 | |
| 72227 | 250807_776877_16494140_0847 | 776877 | (not set) | (not set) | 38.896047271487 | -77.071441205862 | 3.7055 | 2025-08-07 09:00:37 | on_foot | 100 | -0.44703925898772 | |
| 72228 | 250807_776877_16494140_0847 | 776877 | (not set) | (not set) | 38.896047271487 | -77.071441205862 | 3.7055 | 2025-08-07 09:00:37 | on_foot | 100 | -0.44703925898772 | |
| 72229 | 250807_776877_16494140_0847 | 776877 | (not set) | (not set) | 38.896063822291 | -77.071441524299 | 3.7055 | 2025-08-07 09:00:37 | on_foot | 100 | -0.44703925898772 | |
| 72230 | 250807_771892_16513328_0834 | 771892 | (not set) | (not set) | 38.905456747038 | -77.003866231035 | 5.6053 | 2025-08-07 09:00:38 | in_vehicle | 100 | 5.2616520782855 | |
| 72231 | 250807_771892_16513328_0834 | 771892 | (not set) | (not set) | 38.905456747038 | -77.003866231035 | 5.6053 | 2025-08-07 09:00:38 | in_vehicle | 100 | 5.2616520782855 | |
| 72232 | 250807_765311_16499863_0802 | 765311 | (not set) | (not set) | 39.20852582205 | -76.695964948962 | 30.6122 | 2025-08-07 09:00:39 | in_vehicle | 100 | 14.613713376309 | |
| 72233 | 250807_782325_6461772_0846 | 782325 | (not set) | (not set) | 38.906628595754 | -77.038538392664 | 1.4653 | 2025-08-07 09:00:41 | in_vehicle | 100 | 0.89854891056533 | |
| 72234 | 250807_787497_6461772_0835 | 787497 | (not set) | (not set) | 38.9013278323 | -77.04168479882 | 2.0689 | 2025-08-07 09:00:43 | on_foot | 100 | 0.33527944424079 | |
| 72235 | 250807_787497_6461772_0835 | 787497 | (not set) | (not set) | 38.9013278323 | -77.04168479882 | 2.0689 | 2025-08-07 09:00:43 | on_foot | 100 | 0.33527944424079 | |
| 72236 | 250807_787497_6461772_0835 | 787497 | (not set) | (not set) | 38.9013278323 | -77.04168479882 | 2.0689 | 2025-08-07 09:00:43 | on_foot | 100 | 0.33527944424079 | |
| 72237 | 250807_787497_6461772_0835 | 787497 | (not set) | (not set) | 38.9013278323 | -77.04168479882 | 2.0689 | 2025-08-07 09:00:43 | on_foot | 100 | 0.33527944424079 | |
| 72238 | 250807_781766_16459526_0754 | 781766 | (not set) | (not set) | 38.9017601 | -77.0846613 | 26.7122 | 2025-08-07 09:00:44 | in_vehicle | 100 | 5.2661224708754 | |
| 72239 | 250807_781766_16459526_0754 | 781766 | (not set) | (not set) | 38.9017601 | -77.0846613 | 26.7122 | 2025-08-07 09:00:44 | in_vehicle | 100 | 5.2661224708754 | |
| 72240 | 250807_781766_16459526_0754 | 781766 | (not set) | (not set) | 38.9017601 | -77.0846613 | 26.7122 | 2025-08-07 09:00:44 | in_vehicle | 100 | 5.2661224708754 |